Time;durP1;ratioP1;P1;durP2;ratioP2;P2;SDS_P1;SDS_P2;PMS_P1;PMS_P2;Temp;Humidity;BMP_temperature;BMP_pressure;BME280_temperature;BME280_humidity;BME280_pressure;Samples;Min_cycle;Max_cycle;Signal;HPM_P1;HPM_P2
2022/05/06 06:13:30;;;;;;;5.00;3.73;;;;;;;;;;10337324;28;20766;-82
2022/05/06 06:29:38;;;;;;;5.20;4.15;;;;;;;;;;10322200;28;19914;-84
2022/05/06 06:34:59;;;;;;;5.70;4.63;;;;;;;;;;10317878;28;20038;-82
2022/05/06 06:46:13;;;;;;;12.13;10.30;;;;;;;;;;10297506;28;20031;-83
2022/05/06 06:51:19;;;;;;;13.15;10.27;;;;;;;;;;10299213;28;20325;-85
2022/05/06 07:13:32;;;;;;;5.55;4.43;;;;;;;;;;10277716;28;20059;-82
2022/05/06 07:18:33;;;;;;;10.80;5.57;;;;;;;;;;10277724;29;20035;-80
2022/05/06 07:29:04;;;;;;;8.43;5.13;;;;;;;;;;10294903;28;20027;-83
2022/05/06 07:34:16;;;;;;;9.88;6.18;;;;;;;;;;10298889;28;20011;-84
2022/05/06 07:39:54;;;;;;;8.18;5.65;;;;;;;;;;10304559;28;20087;-80
2022/05/06 07:45:16;;;;;;;7.57;5.20;;;;;;;;;;10329142;28;20079;-81
2022/05/06 07:50:17;;;;;;;10.45;5.20;;;;;;;;;;10325609;28;20046;-81
2022/05/06 07:55:19;;;;;;;8.27;5.45;;;;;;;;;;10267855;28;20094;-81
2022/05/06 08:00:24;;;;;;;7.70;5.72;;;;;;;;;;10284399;28;20046;-84
2022/05/06 08:05:27;;;;;;;11.15;8.40;;;;;;;;;;10271913;29;20023;-85
2022/05/06 08:10:28;;;;;;;8.55;6.07;;;;;;;;;;10280604;28;20050;-84
2022/05/06 08:15:31;;;;;;;7.63;5.13;;;;;;;;;;10287960;29;20053;-81
2022/05/06 08:20:33;;;;;;;12.00;7.60;;;;;;;;;;10271019;28;20046;-81
2022/05/06 08:25:35;;;;;;;9.02;7.13;;;;;;;;;;10282299;28;20055;-82
2022/05/06 08:30:37;;;;;;;7.68;6.88;;;;;;;;;;10287256;28;20042;-82
2022/05/06 08:35:44;;;;;;;8.93;6.68;;;;;;;;;;10285868;28;20035;-82
2022/05/06 08:40:45;;;;;;;9.88;7.53;;;;;;;;;;10286984;28;20122;-82
2022/05/06 08:51:07;;;;;;;11.93;8.30;;;;;;;;;;10288910;28;20047;-83
2022/05/06 08:56:13;;;;;;;14.20;10.85;;;;;;;;;;10276214;29;20067;-82
2022/05/06 09:01:22;;;;;;;11.68;8.93;;;;;;;;;;10313440;23;20135;-84
2022/05/06 09:06:27;;;;;;;10.15;7.18;;;;;;;;;;10294249;28;20041;-82
2022/05/06 09:16:50;;;;;;;15.80;13.80;;;;;;;;;;10329048;28;20386;-80
2022/05/06 09:22:14;;;;;;;12.52;11.20;;;;;;;;;;10307066;28;20037;-83
2022/05/06 09:27:21;;;;;;;12.07;9.60;;;;;;;;;;10310218;28;20039;-84
2022/05/06 09:32:31;;;;;;;13.90;12.38;;;;;;;;;;10304651;28;20023;-81
2022/05/06 09:37:52;;;;;;;10.07;8.88;;;;;;;;;;10306073;28;20408;-81
2022/05/06 09:42:57;;;;;;;17.40;14.10;;;;;;;;;;10308960;28;20023;-82
2022/05/06 09:48:00;;;;;;;15.55;12.93;;;;;;;;;;10287444;28;20027;-81
2022/05/06 09:53:02;;;;;;;17.98;11.52;;;;;;;;;;10285989;28;20077;-82
2022/05/06 09:58:03;;;;;;;13.50;10.48;;;;;;;;;;10285274;28;20475;-81
2022/05/06 10:03:05;;;;;;;12.57;10.10;;;;;;;;;;10280960;28;20495;-82
2022/05/06 10:08:15;;;;;;;13.57;11.80;;;;;;;;;;10280619;28;20034;-82
2022/05/06 10:13:21;;;;;;;13.15;11.27;;;;;;;;;;10281903;28;20023;-83
2022/05/06 10:18:41;;;;;;;14.13;10.85;;;;;;;;;;10281599;28;20126;-83
2022/05/06 10:23:58;;;;;;;14.93;11.77;;;;;;;;;;10299739;28;20031;-83
2022/05/06 10:34:20;;;;;;;11.77;8.27;;;;;;;;;;10303474;28;20117;-82
2022/05/06 10:39:25;;;;;;;10.68;9.45;;;;;;;;;;10298874;28;20034;-83
2022/05/06 10:44:35;;;;;;;11.18;9.48;;;;;;;;;;10282486;28;20027;-83
2022/05/06 10:49:39;;;;;;;14.10;12.00;;;;;;;;;;10292512;28;20041;-83
2022/05/06 10:54:41;;;;;;;17.75;11.98;;;;;;;;;;10306545;28;20045;-82
2022/05/06 10:59:52;;;;;;;80.93;72.10;;;;;;;;;;10346582;28;20066;-83
2022/05/06 11:04:57;;;;;;;16.15;11.50;;;;;;;;;;10314772;28;20038;-83
2022/05/06 11:09:58;;;;;;;13.15;10.07;;;;;;;;;;10294387;28;20078;-84
2022/05/06 11:14:59;;;;;;;17.30;12.60;;;;;;;;;;10290702;28;20037;-83
2022/05/06 11:20:00;;;;;;;25.70;22.98;;;;;;;;;;10307910;28;20105;-83
2022/05/06 11:25:01;;;;;;;13.45;9.10;;;;;;;;;;10289977;28;20023;-82
2022/05/06 11:30:02;;;;;;;13.60;11.45;;;;;;;;;;10309044;28;20034;-83
2022/05/06 11:35:11;;;;;;;11.68;9.88;;;;;;;;;;10289398;28;20136;-83
2022/05/06 11:50:49;;;;;;;13.52;12.13;;;;;;;;;;10307687;28;20031;-83
2022/05/06 11:55:51;;;;;;;12.73;10.23;;;;;;;;;;10306444;28;20458;-82
2022/05/06 12:00:53;;;;;;;11.88;10.07;;;;;;;;;;10289608;28;20062;-84
2022/05/06 12:05:59;;;;;;;13.88;8.27;;;;;;;;;;10297857;28;20027;-82
2022/05/06 12:11:02;;;;;;;13.07;10.95;;;;;;;;;;10283422;28;20027;-82
2022/05/06 12:16:07;;;;;;;17.98;14.30;;;;;;;;;;10305431;28;20019;-81
2022/05/06 12:21:20;;;;;;;13.98;12.38;;;;;;;;;;10292128;28;20027;-81
2022/05/06 12:26:32;;;;;;;14.20;11.95;;;;;;;;;;10282375;28;20364;-81
2022/05/06 12:31:34;;;;;;;14.68;13.18;;;;;;;;;;10302824;28;20475;-81
2022/05/06 12:36:38;;;;;;;11.65;8.75;;;;;;;;;;10289652;28;20050;-82
2022/05/06 12:41:39;;;;;;;10.52;9.43;;;;;;;;;;10287581;28;20035;-82
2022/05/06 12:46:41;;;;;;;12.88;9.77;;;;;;;;;;10287621;28;20137;-82
2022/05/06 12:51:43;;;;;;;9.88;7.88;;;;;;;;;;10289116;28;20034;-82
2022/05/06 12:56:44;;;;;;;11.10;8.50;;;;;;;;;;10289328;28;20470;-82
2022/05/06 13:01:49;;;;;;;11.35;9.98;;;;;;;;;;10294485;28;20035;-84
2022/05/06 13:06:50;;;;;;;12.27;10.98;;;;;;;;;;10291122;28;20038;-82
2022/05/06 13:11:53;;;;;;;12.70;10.82;;;;;;;;;;10288705;28;20058;-83
2022/05/06 13:16:56;;;;;;;11.15;9.23;;;;;;;;;;10322348;28;20053;-82
2022/05/06 13:21:57;;;;;;;12.25;10.15;;;;;;;;;;10292933;28;20057;-82
2022/05/06 13:38:56;;;;;;;11.77;9.88;;;;;;;;;;10229125;29;20094;-82
2022/05/06 13:44:12;;;;;;;8.68;7.38;;;;;;;;;;10229912;29;20042;-83
2022/05/06 13:49:16;;;;;;;16.52;14.30;;;;;;;;;;10231610;29;20040;-82
2022/05/06 13:54:50;;;;;;;10.57;8.57;;;;;;;;;;10266023;28;20035;-83
2022/05/06 14:00:07;;;;;;;10.63;9.27;;;;;;;;;;10296706;28;20043;-83
2022/05/06 14:05:08;;;;;;;11.18;10.07;;;;;;;;;;10304128;28;20460;-82
2022/05/06 14:10:09;;;;;;;11.98;9.32;;;;;;;;;;10292928;28;20037;-83
2022/05/06 14:15:19;;;;;;;10.48;8.90;;;;;;;;;;10288235;28;20073;-82
2022/05/06 14:20:23;;;;;;;11.63;9.43;;;;;;;;;;10287797;28;20039;-83
2022/05/06 14:25:52;;;;;;;;;;;;;;;;;;;;;
2022/05/06 14:31:03;;;;;;;11.55;9.30;;;;;;;;;;10316197;28;20039;-83
2022/05/06 14:36:11;;;;;;;14.68;9.25;;;;;;;;;;10296558;28;20034;-82
2022/05/06 14:41:12;;;;;;;9.52;8.52;;;;;;;;;;10313211;28;20063;-83
2022/05/06 14:46:16;;;;;;;10.00;8.50;;;;;;;;;;10294462;28;20033;-83
2022/05/06 14:51:27;;;;;;;9.77;8.43;;;;;;;;;;10294014;28;20034;-83
2022/05/06 14:56:30;;;;;;;8.48;7.60;;;;;;;;;;10294638;28;20444;-82
2022/05/06 15:01:32;;;;;;;10.52;9.23;;;;;;;;;;10325627;23;20118;-82
2022/05/06 15:06:33;;;;;;;12.23;9.00;;;;;;;;;;10368504;28;20030;-81
2022/05/06 15:11:34;;;;;;;9.32;7.40;;;;;;;;;;10364299;28;20031;-86
2022/05/06 15:16:38;;;;;;;14.23;9.18;;;;;;;;;;10371226;28;20553;-86
2022/05/06 15:22:09;;;;;;;6.90;6.13;;;;;;;;;;10360809;28;20037;-84
2022/05/06 15:27:21;;;;;;;8.60;7.60;;;;;;;;;;10338174;28;20486;-87
2022/05/06 15:32:38;;;;;;;8.00;6.30;;;;;;;;;;10355088;28;20034;-82
2022/05/06 15:37:40;;;;;;;9.98;7.40;;;;;;;;;;10363947;28;20480;-82
2022/05/06 15:42:41;;;;;;;11.43;10.10;;;;;;;;;;10351372;28;20042;-82
2022/05/06 15:47:42;;;;;;;8.40;6.90;;;;;;;;;;10360990;28;20113;-82
2022/05/06 15:52:43;;;;;;;7.28;5.43;;;;;;;;;;10355047;28;20041;-85
2022/05/06 15:57:44;;;;;;;5.68;4.28;;;;;;;;;;10358728;28;20034;-81
2022/05/06 16:02:45;;;;;;;7.18;4.50;;;;;;;;;;10355488;28;20510;-83
2022/05/06 16:07:46;;;;;;;6.95;3.78;;;;;;;;;;10354114;28;20033;-85
2022/05/06 16:12:55;;;;;;;4.13;3.28;;;;;;;;;;10344229;28;20033;-85
2022/05/06 16:23:22;;;;;;;4.38;3.60;;;;;;;;;;10359574;28;20069;-85
2022/05/06 16:28:26;;;;;;;8.02;5.45;;;;;;;;;;10369971;28;20030;-88
2022/05/06 16:38:59;;;;;;;4.47;2.90;;;;;;;;;;10267150;29;20031;-87
2022/05/06 16:44:13;;;;;;;;;;;;;;;;;;;;;
2022/05/06 16:49:15;;;;;;;7.35;2.92;;;;;;;;;;10370143;28;20131;-83
2022/05/06 16:54:16;;;;;;;4.00;2.75;;;;;;;;;;10377695;28;20140;-86
2022/05/06 16:59:20;;;;;;;3.67;2.72;;;;;;;;;;10361753;28;20082;-87
2022/05/06 17:04:21;;;;;;;6.20;5.10;;;;;;;;;;10347068;28;20030;-87
2022/05/06 17:09:22;;;;;;;3.92;3.00;;;;;;;;;;10367117;28;20026;-86
2022/05/06 17:14:23;;;;;;;4.63;2.22;;;;;;;;;;10339875;28;20451;-85
2022/05/06 17:19:25;;;;;;;3.72;2.70;;;;;;;;;;10338576;28;20109;-85
2022/05/06 17:24:26;;;;;;;2.90;2.60;;;;;;;;;;10336970;28;20037;-86
2022/05/06 17:29:27;;;;;;;15.35;11.45;;;;;;;;;;10336304;28;20096;-85
2022/05/06 17:34:31;;;;;;;15.65;9.30;;;;;;;;;;10339685;28;20106;-85
2022/05/06 17:39:32;;;;;;;3.15;2.50;;;;;;;;;;10342940;28;20113;-86
2022/05/06 17:44:33;;;;;;;3.33;2.47;;;;;;;;;;10340682;28;20041;-85
2022/05/06 17:49:35;;;;;;;3.78;2.58;;;;;;;;;;10339036;28;20463;-85
2022/05/06 17:54:36;;;;;;;3.67;2.40;;;;;;;;;;10339694;28;20026;-84
2022/05/06 17:59:37;;;;;;;3.22;1.90;;;;;;;;;;10341132;28;20026;-84
2022/05/06 18:04:38;;;;;;;3.90;2.55;;;;;;;;;;10341708;28;20439;-84
2022/05/06 18:09:39;;;;;;;2.67;2.38;;;;;;;;;;10339794;28;20030;-86
2022/05/06 18:14:40;;;;;;;3.42;2.30;;;;;;;;;;10340950;28;20041;-83
2022/05/06 18:19:42;;;;;;;3.40;2.00;;;;;;;;;;10340595;28;20528;-84
2022/05/06 18:24:43;;;;;;;3.42;2.15;;;;;;;;;;10349525;28;20041;-86
2022/05/06 18:29:49;;;;;;;4.47;3.53;;;;;;;;;;10338588;28;20073;-85
2022/05/06 18:34:50;;;;;;;3.30;2.63;;;;;;;;;;10338003;28;20030;-83
2022/05/06 18:39:51;;;;;;;3.97;2.70;;;;;;;;;;10339935;28;20147;-85
2022/05/06 18:44:55;;;;;;;3.70;2.60;;;;;;;;;;10343449;28;20018;-84
2022/05/06 18:49:56;;;;;;;3.60;2.70;;;;;;;;;;10340715;28;20030;-87
2022/05/06 18:54:57;;;;;;;3.10;2.50;;;;;;;;;;10346643;28;20045;-85
2022/05/06 18:59:58;;;;;;;4.75;2.78;;;;;;;;;;10342341;28;20081;-84
2022/05/06 19:04:59;;;;;;;2.85;2.40;;;;;;;;;;10346720;28;20023;-84
2022/05/06 19:10:02;;;;;;;3.17;2.30;;;;;;;;;;10368000;28;20410;-85
2022/05/06 19:15:03;;;;;;;3.20;2.70;;;;;;;;;;10378149;28;20022;-86
2022/05/06 19:20:11;;;;;;;3.33;2.60;;;;;;;;;;10369866;28;20121;-86
2022/05/06 19:25:12;;;;;;;2.67;2.40;;;;;;;;;;10354915;28;20033;-85
